Time;durP1;ratioP1;P1;durP2;ratioP2;P2;SDS_P1;SDS_P2;PMS_P1;PMS_P2;Temp;Humidity;BMP_temperature;BMP_pressure;BME280_temperature;BME280_humidity;BME280_pressure;Samples;Min_cycle;Max_cycle;Signal;HPM_P1;HPM_P2
2020/12/23 00:01:30;;;;;;;0.17;0.10;;;11.20;99.90;;;;;;4956063;28;20470;-76
2020/12/23 00:03:57;;;;;;;3.42;0.10;;;11.10;99.90;;;;;;4964587;28;20034;-77
2020/12/23 00:06:33;;;;;;;0.10;0.10;;;11.20;99.90;;;;;;4974760;28;20031;-76
2020/12/23 00:08:59;;;;;;;0.25;0.17;;;11.20;99.90;;;;;;4974660;28;20035;-76
2020/12/23 00:11:25;;;;;;;0.20;0.20;;;11.20;99.90;;;;;;4970774;28;20034;-76
2020/12/23 00:13:51;;;;;;;6.95;0.70;;;11.20;99.90;;;;;;4972613;28;20023;-76
2020/12/23 00:16:16;;;;;;;0.52;0.52;;;11.20;99.90;;;;;;4974951;28;20495;-76
2020/12/23 00:18:42;;;;;;;0.60;0.60;;;11.30;99.90;;;;;;4974736;28;20035;-76
2020/12/23 00:21:08;;;;;;;2.28;0.60;;;11.20;99.90;;;;;;4958386;28;20039;-75
2020/12/23 00:23:35;;;;;;;0.80;0.77;;;11.30;99.90;;;;;;4966649;28;20066;-76
2020/12/23 00:26:01;;;;;;;0.60;0.60;;;11.30;99.90;;;;;;4974246;28;20038;-76
2020/12/23 00:28:26;;;;;;;0.80;0.80;;;11.20;99.90;;;;;;4973052;28;20027;-76
2020/12/23 00:30:52;;;;;;;0.98;0.82;;;11.20;99.90;;;;;;4955671;28;20470;-76
2020/12/23 00:33:18;;;;;;;5.68;1.17;;;11.30;99.90;;;;;;4966744;28;20397;-75
2020/12/23 00:35:44;;;;;;;1.20;1.10;;;11.30;99.90;;;;;;4962869;28;20035;-77
2020/12/23 00:38:09;;;;;;;1.35;0.90;;;11.30;99.90;;;;;;4971506;28;20039;-76
2020/12/23 00:40:35;;;;;;;1.30;1.20;;;11.30;99.90;;;;;;4970341;28;20122;-76
2020/12/23 00:43:01;;;;;;;0.85;0.85;;;11.30;99.90;;;;;;4968639;28;20035;-76
2020/12/23 00:45:26;;;;;;;1.33;0.90;;;11.30;99.90;;;;;;4974139;28;20026;-77
2020/12/23 00:47:52;;;;;;;2.10;1.15;;;11.30;99.90;;;;;;4974299;28;20027;-76
2020/12/23 00:50:18;;;;;;;1.10;1.00;;;11.30;99.90;;;;;;4964924;28;20122;-76
2020/12/23 00:52:43;;;;;;;5.15;1.25;;;11.30;99.90;;;;;;4955910;28;20023;-76
2020/12/23 00:55:10;;;;;;;1.13;1.02;;;11.30;99.90;;;;;;4969743;28;21305;-76
2020/12/23 00:57:39;;;;;;;1.10;1.00;;;11.30;99.90;;;;;;4972952;28;20039;-76
2020/12/23 01:00:06;;;;;;;1.42;1.23;;;11.30;99.90;;;;;;4973922;28;20400;-76
2020/12/23 01:02:32;;;;;;;3.38;1.10;;;11.30;99.90;;;;;;4967228;28;20045;-76
2020/12/23 01:04:57;;;;;;;2.95;0.95;;;11.30;99.90;;;;;;4973648;28;20117;-76
2020/12/23 01:07:23;;;;;;;1.83;1.00;;;11.30;99.90;;;;;;4974185;28;20086;-76
2020/12/23 01:09:49;;;;;;;0.90;0.90;;;11.30;99.90;;;;;;4968189;28;20036;-75
2020/12/23 01:12:14;;;;;;;6.20;1.00;;;11.30;99.90;;;;;;4954943;28;20090;-76
2020/12/23 01:14:40;;;;;;;61.80;2.78;;;11.30;99.90;;;;;;4968456;28;20038;-76
2020/12/23 01:17:06;;;;;;;1.00;0.90;;;11.40;99.90;;;;;;4973768;28;20066;-76
2020/12/23 01:19:31;;;;;;;3.17;1.00;;;11.30;99.90;;;;;;4973614;28;20547;-76
2020/12/23 01:21:57;;;;;;;1.00;0.90;;;11.30;99.90;;;;;;4965767;28;20042;-76
2020/12/23 01:24:23;;;;;;;1.73;0.90;;;11.30;99.90;;;;;;4971182;28;20138;-76
2020/12/23 01:26:49;;;;;;;1.00;0.90;;;11.30;99.90;;;;;;4973697;28;20047;-75
2020/12/23 01:29:15;;;;;;;5.20;1.15;;;11.30;99.90;;;;;;4972861;28;20038;-76
2020/12/23 01:31:41;;;;;;;1.95;1.15;;;11.30;99.90;;;;;;4959474;28;20038;-76
2020/12/23 01:34:07;;;;;;;1.80;0.70;;;11.30;99.90;;;;;;4971688;28;20054;-76
2020/12/23 01:36:33;;;;;;;1.00;0.90;;;11.30;99.90;;;;;;4973613;28;20042;-76
2020/12/23 01:38:59;;;;;;;1.10;0.60;;;11.40;99.90;;;;;;4972693;28;20034;-76
2020/12/23 01:41:25;;;;;;;0.60;0.60;;;11.30;99.90;;;;;;4959759;28;20121;-76
2020/12/23 01:43:56;;;;;;;1.52;1.42;;;11.30;99.90;;;;;;4965480;28;20039;-76
2020/12/23 01:46:34;;;;;;;0.55;0.55;;;11.30;99.90;;;;;;4971730;28;20137;-76
2020/12/23 01:49:06;;;;;;;0.63;0.63;;;11.40;99.90;;;;;;4971591;28;20031;-76
2020/12/23 01:51:36;;;;;;;0.80;0.80;;;11.40;99.90;;;;;;4969743;28;20520;-76
2020/12/23 01:54:02;;;;;;;39.83;1.73;;;11.40;99.90;;;;;;4969059;28;20114;-76
2020/12/23 01:56:30;;;;;;;0.60;0.60;;;11.40;99.90;;;;;;4967526;28;20034;-76
2020/12/23 01:58:56;;;;;;;0.60;0.60;;;11.40;99.90;;;;;;4971108;28;20074;-76
2020/12/23 02:01:24;;;;;;;1.85;0.82;;;11.40;99.90;;;;;;4956498;28;20118;-75
2020/12/23 02:03:50;;;;;;;1.70;0.80;;;11.40;99.90;;;;;;4962875;28;20703;-77
2020/12/23 02:06:16;;;;;;;0.60;0.60;;;11.40;99.90;;;;;;4972160;28;20397;-76
2020/12/23 02:08:44;;;;;;;0.63;0.63;;;11.40;99.90;;;;;;4972296;28;20653;-76
2020/12/23 02:11:11;;;;;;;0.80;0.70;;;11.40;99.90;;;;;;4969351;28;20062;-77
2020/12/23 02:13:44;;;;;;;4.20;0.88;;;11.40;99.90;;;;;;4969214;28;20556;-77
2020/12/23 02:16:11;;;;;;;15.18;1.23;;;11.40;99.90;;;;;;4972683;28;20576;-77
2020/12/23 02:18:38;;;;;;;0.50;0.50;;;11.40;99.90;;;;;;4972042;28;20037;-76
2020/12/23 02:21:04;;;;;;;0.95;0.85;;;11.40;99.90;;;;;;4972652;28;20042;-76
2020/12/23 02:23:30;;;;;;;0.95;0.80;;;11.40;99.90;;;;;;4967733;28;20023;-76
2020/12/23 02:25:56;;;;;;;2.25;0.70;;;11.40;99.90;;;;;;4972231;28;20492;-76
2020/12/23 02:28:22;;;;;;;1.48;0.90;;;11.40;99.90;;;;;;4972418;28;20043;-76
2020/12/23 02:30:59;;;;;;;17.52;0.90;;;11.40;99.90;;;;;;4967189;28;20027;-77
2020/12/23 02:33:25;;;;;;;1.27;0.65;;;11.40;99.90;;;;;;4963871;28;20034;-77
2020/12/23 02:35:51;;;;;;;4.78;0.90;;;11.40;99.90;;;;;;4963975;28;20098;-76
2020/12/23 02:38:17;;;;;;;3.80;0.80;;;11.40;99.90;;;;;;4952919;29;20035;-75
2020/12/23 02:40:42;;;;;;;1.13;0.65;;;11.40;99.90;;;;;;4959190;28;20038;-76
2020/12/23 02:43:08;;;;;;;30.38;1.42;;;11.40;99.90;;;;;;4968313;28;20089;-76
2020/12/23 02:45:34;;;;;;;25.95;1.70;;;11.40;99.90;;;;;;4971877;28;20516;-76
2020/12/23 02:48:00;;;;;;;3.13;0.90;;;11.40;99.90;;;;;;4971912;28;20486;-76
2020/12/23 02:50:25;;;;;;;0.70;0.70;;;11.40;99.90;;;;;;4972029;28;20494;-76
2020/12/23 02:52:51;;;;;;;77.82;2.83;;;11.40;99.90;;;;;;4965301;28;20068;-74
2020/12/23 02:55:17;;;;;;;0.95;0.95;;;11.50;99.90;;;;;;4970148;28;20023;-76
2020/12/23 02:57:42;;;;;;;1.10;1.00;;;11.50;99.90;;;;;;4972026;28;20031;-76
2020/12/23 03:00:08;;;;;;;1.45;0.90;;;11.50;99.90;;;;;;4970516;28;20140;-76
2020/12/23 03:02:34;;;;;;;7.57;0.85;;;11.50;99.90;;;;;;4965808;28;20030;-76
2020/12/23 03:05:00;;;;;;;2.78;0.82;;;11.50;99.90;;;;;;4971313;28;20120;-76
2020/12/23 03:07:26;;;;;;;18.95;1.25;;;11.50;99.90;;;;;;4972046;28;20038;-76
2020/12/23 03:09:51;;;;;;;0.90;0.90;;;11.50;99.90;;;;;;4965710;28;20418;-76
2020/12/23 03:12:17;;;;;;;0.80;0.80;;;11.50;99.90;;;;;;4959787;28;20025;-75
2020/12/23 03:14:43;;;;;;;0.98;0.93;;;11.50;99.90;;;;;;4970744;28;20027;-76
2020/12/23 03:17:08;;;;;;;0.90;0.90;;;11.50;99.90;;;;;;4953570;28;20581;-75
2020/12/23 03:19:34;;;;;;;2.58;0.88;;;11.50;99.90;;;;;;4952626;28;20073;-75
2020/12/23 03:22:00;;;;;;;28.00;1.50;;;11.50;99.90;;;;;;4952572;28;20912;-75
2020/12/23 03:24:25;;;;;;;43.05;2.25;;;11.50;99.90;;;;;;4968453;28;20034;-76
2020/12/23 03:26:51;;;;;;;12.25;1.02;;;11.40;99.90;;;;;;4971704;28;20094;-75
2020/12/23 03:29:17;;;;;;;0.93;0.82;;;11.50;99.90;;;;;;4971426;28;20034;-75
2020/12/23 03:31:43;;;;;;;1.20;0.77;;;11.50;99.90;;;;;;4960286;28;20023;-75
2020/12/23 03:34:08;;;;;;;0.80;0.80;;;11.50;99.90;;;;;;4965019;28;20090;-75
2020/12/23 03:36:34;;;;;;;0.90;0.90;;;11.50;99.90;;;;;;4962525;28;20546;-75
2020/12/23 03:39:00;;;;;;;0.98;0.88;;;11.50;99.90;;;;;;4952779;28;20249;-75
2020/12/23 03:41:26;;;;;;;1.73;0.80;;;11.50;99.90;;;;;;4963305;28;20521;-75
2020/12/23 03:43:52;;;;;;;3.30;0.88;;;11.50;99.90;;;;;;4970787;28;20035;-75
2020/12/23 03:46:18;;;;;;;0.68;0.68;;;11.50;99.90;;;;;;4960280;28;20038;-77
2020/12/23 03:48:43;;;;;;;2.38;0.90;;;11.50;99.90;;;;;;4952136;29;20453;-76
2020/12/23 03:51:09;;;;;;;68.18;2.85;;;11.40;99.90;;;;;;4951271;28;20032;-75
2020/12/23 03:53:35;;;;;;;0.80;0.80;;;11.50;99.90;;;;;;4957743;28;20026;-75
2020/12/23 03:56:00;;;;;;;2.55;0.95;;;11.50;99.90;;;;;;4971197;28;20043;-76
2020/12/23 03:58:26;;;;;;;0.70;0.70;;;11.50;99.90;;;;;;4971174;28;20030;-75
2020/12/23 04:00:52;;;;;;;0.75;0.70;;;11.50;99.90;;;;;;4967607;28;20483;-76
2020/12/23 04:03:17;;;;;;;0.70;0.70;;;11.50;99.90;;;;;;4967069;28;20046;-75
2020/12/23 04:05:43;;;;;;;2.53;0.80;;;11.50;99.90;;;;;;4971324;28;20129;-75
2020/12/23 04:08:09;;;;;;;1.77;0.80;;;11.50;99.90;;;;;;4971251;28;20042;-76
2020/12/23 04:10:35;;;;;;;0.70;0.70;;;11.50;99.90;;;;;;4959546;28;20114;-75
2020/12/23 04:13:00;;;;;;;1.25;0.60;;;11.50;99.90;;;;;;4960478;28;20473;-76
2020/12/23 04:15:26;;;;;;;2.42;0.80;;;11.50;99.90;;;;;;4962185;28;20030;-75
2020/12/23 04:17:53;;;;;;;0.65;0.65;;;11.50;99.90;;;;;;4958172;28;20118;-75
2020/12/23 04:20:19;;;;;;;3.05;0.90;;;11.50;99.90;;;;;;4969381;28;20105;-75
2020/12/23 04:22:45;;;;;;;0.85;0.60;;;11.50;99.90;;;;;;4974872;28;20035;-76
2020/12/23 04:25:12;;;;;;;3.17;0.88;;;11.50;99.90;;;;;;4975027;28;20058;-75
2020/12/23 04:27:37;;;;;;;1.38;0.63;;;11.50;99.90;;;;;;4969455;28;20030;-76
2020/12/23 04:30:05;;;;;;;21.95;1.30;;;11.40;99.90;;;;;;4969609;28;20078;-75
2020/12/23 04:32:30;;;;;;;27.02;1.13;;;11.40;99.90;;;;;;4957543;28;20031;-75
2020/12/23 04:34:58;;;;;;;12.18;0.60;;;11.40;99.90;;;;;;4956382;28;20807;-76
2020/12/23 04:37:24;;;;;;;0.45;0.32;;;11.30;99.90;;;;;;4967102;28;20085;-75
2020/12/23 04:39:49;;;;;;;5.85;0.50;;;11.30;99.90;;;;;;4967736;28;20035;-75
2020/12/23 04:42:15;;;;;;;2.40;0.30;;;11.30;99.90;;;;;;4955055;28;20638;-74
2020/12/23 04:44:42;;;;;;;1.23;0.10;;;11.30;99.90;;;;;;4966531;28;20043;-75
2020/12/23 04:47:14;;;;;;;1.38;0.28;;;11.20;99.90;;;;;;4971534;28;20553;-75
2020/12/23 04:49:45;;;;;;;5.20;0.20;;;11.20;99.90;;;;;;4969471;28;20027;-75
2020/12/23 04:52:12;;;;;;;0.10;0.10;;;11.20;99.90;;;;;;4955452;28;20490;-75
2020/12/23 04:54:38;;;;;;;9.40;0.20;;;11.10;99.90;;;;;;4954904;28;20023;-75
2020/12/23 04:57:04;;;;;;;0.20;0.10;;;11.10;99.90;;;;;;4965539;28;20093;-75
2020/12/23 04:59:30;;;;;;;15.23;0.28;;;11.00;99.90;;;;;;4969051;28;20031;-75
2020/12/23 05:02:00;;;;;;;15.20;0.40;;;11.00;99.90;;;;;;4954912;28;20038;-75
2020/12/23 05:04:26;;;;;;;0.57;0.00;;;10.90;99.90;;;;;;4961138;28;20109;-75
2020/12/23 05:07:04;;;;;;;2.35;0.10;;;10.90;99.90;;;;;;4962087;28;20062;-75
2020/12/23 05:09:30;;;;;;;9.88;0.10;;;10.90;99.90;;;;;;4968509;28;20122;-75
2020/12/23 05:11:57;;;;;;;6.07;0.08;;;10.90;99.90;;;;;;4954697;28;20031;-75
2020/12/23 05:14:25;;;;;;;2.13;0.32;;;10.90;99.90;;;;;;4964305;28;20034;-75
2020/12/23 05:16:52;;;;;;;0.03;0.03;;;10.80;99.90;;;;;;4968732;28;20031;-75
2020/12/23 05:19:18;;;;;;;2.83;0.00;;;10.70;99.90;;;;;;4973071;28;20449;-75
2020/12/23 05:21:45;;;;;;;2.25;0.03;;;10.70;99.90;;;;;;4973841;28;20039;-76
2020/12/23 05:24:12;;;;;;;8.93;0.30;;;10.80;99.90;;;;;;4973642;28;20035;-75
2020/12/23 05:26:45;;;;;;;0.25;0.00;;;10.70;99.90;;;;;;4966223;28;20405;-75
2020/12/23 05:29:15;;;;;;;7.22;0.30;;;10.70;99.90;;;;;;4970431;28;20042;-75
2020/12/23 05:31:43;;;;;;;0.00;0.00;;;10.60;99.90;;;;;;4969186;28;20059;-75
2020/12/23 05:34:09;;;;;;;0.00;0.00;;;10.60;99.90;;;;;;4963146;28;20039;-75
2020/12/23 05:36:37;;;;;;;0.17;0.00;;;10.60;99.90;;;;;;4966453;28;20046;-75
2020/12/23 05:39:08;;;;;;;0.00;0.00;;;10.50;99.90;;;;;;4967437;28;20489;-75
2020/12/23 05:41:37;;;;;;;0.00;0.00;;;10.50;99.90;;;;;;4973428;28;20484;-75
2020/12/23 05:44:19;;;;;;;0.55;0.00;;;10.50;99.90;;;;;;4973185;28;20034;-75
2020/12/23 05:46:47;;;;;;;0.10;0.10;;;10.40;99.90;;;;;;4970884;28;20022;-75
2020/12/23 05:49:17;;;;;;;3.72;0.20;;;10.40;99.90;;;;;;4971323;28;20061;-75
2020/12/23 05:51:44;;;;;;;0.00;0.00;;;10.50;99.90;;;;;;4954165;28;20393;-75
2020/12/23 05:54:11;;;;;;;1.20;0.10;;;10.50;99.90;;;;;;4954280;28;20090;-75
2020/12/23 05:56:38;;;;;;;0.08;0.03;;;10.50;99.90;;;;;;4957411;28;20362;-76
2020/12/23 05:59:05;;;;;;;0.00;0.00;;;10.40;99.90;;;;;;4970575;28;20389;-75
2020/12/23 06:01:39;;;;;;;0.10;0.00;;;10.40;99.90;;;;;;4963775;28;20440;-75
2020/12/23 06:04:06;;;;;;;0.35;0.00;;;10.40;99.90;;;;;;4953626;28;20035;-75
2020/12/23 06:06:33;;;;;;;1.55;0.10;;;10.40;99.90;;;;;;4965225;28;20042;-75
2020/12/23 06:09:02;;;;;;;0.00;0.00;;;10.40;99.90;;;;;;4972605;28;20433;-75
2020/12/23 06:11:32;;;;;;;0.43;0.20;;;10.40;99.90;;;;;;4972984;28;20114;-75
2020/12/23 06:14:10;;;;;;;0.20;0.10;;;10.40;99.90;;;;;;4972580;28;20050;-75
2020/12/23 06:16:50;;;;;;;0.10;0.10;;;10.40;99.90;;;;;;4968805;28;20054;-75
2020/12/23 06:19:40;;;;;;;0.00;0.00;;;10.30;99.90;;;;;;4970245;28;20035;-75
2020/12/23 06:22:10;;;;;;;1.15;0.10;;;10.30;99.90;;;;;;4958094;28;20486;-75
2020/12/23 06:24:39;;;;;;;0.15;0.10;;;10.30;99.90;;;;;;4953414;28;20097;-75
2020/12/23 06:27:07;;;;;;;0.32;0.10;;;10.30;99.90;;;;;;4966159;28;20038;-75
2020/12/23 06:29:35;;;;;;;0.10;0.10;;;10.40;99.90;;;;;;4967655;28;20031;-75
2020/12/23 06:32:04;;;;;;;0.70;0.00;;;10.30;99.90;;;;;;4953089;28;20031;-76
2020/12/23 06:34:38;;;;;;;0.30;0.10;;;10.30;99.90;;;;;;4953580;28;20067;-74
2020/12/23 06:37:17;;;;;;;0.65;0.20;;;10.30;99.90;;;;;;4971249;28;20058;-74
2020/12/23 06:39:43;;;;;;;0.15;0.00;;;10.40;99.90;;;;;;4952471;28;20051;-75
2020/12/23 06:42:09;;;;;;;2.67;0.20;;;10.30;99.90;;;;;;4952604;28;20119;-75
2020/12/23 06:44:43;;;;;;;0.15;0.10;;;10.30;99.90;;;;;;4952998;28;20120;-75
2020/12/23 06:47:16;;;;;;;0.05;0.00;;;10.20;99.90;;;;;;4959844;28;20051;-75
2020/12/23 06:49:49;;;;;;;0.68;0.22;;;10.20;99.90;;;;;;4970602;28;20019;-75
2020/12/23 06:52:21;;;;;;;0.80;0.10;;;10.30;99.90;;;;;;4968593;28;20039;-75
2020/12/23 06:54:48;;;;;;;4.75;0.20;;;10.30;99.90;;;;;;4963139;28;20468;-75
2020/12/23 06:57:35;;;;;;;4.47;0.22;;;10.30;99.90;;;;;;4967914;28;20030;-76
2020/12/23 07:00:05;;;;;;;0.08;0.08;;;10.30;99.90;;;;;;4954888;28;20031;-75
2020/12/23 07:02:39;;;;;;;12.48;0.50;;;10.30;99.90;;;;;;4952525;29;20408;-75
2020/12/23 07:05:04;;;;;;;20.75;0.60;;;10.30;99.90;;;;;;4952778;28;20034;-75
2020/12/23 07:07:41;;;;;;;5.55;0.20;;;10.20;99.90;;;;;;4958970;28;20042;-75
2020/12/23 07:10:15;;;;;;;14.60;0.40;;;10.20;99.90;;;;;;4968680;28;20102;-76
2020/12/23 07:12:57;;;;;;;9.90;0.35;;;10.20;99.90;;;;;;4971612;28;20050;-75
2020/12/23 07:15:27;;;;;;;0.63;0.20;;;10.10;99.90;;;;;;4969706;28;20030;-75
2020/12/23 07:18:00;;;;;;;10.43;0.47;;;10.20;99.90;;;;;;4971336;28;20034;-75
2020/12/23 07:20:26;;;;;;;0.20;0.20;;;10.20;99.90;;;;;;4969882;28;20033;-75
2020/12/23 07:22:53;;;;;;;1.38;0.10;;;10.20;99.90;;;;;;4968996;28;20027;-74
2020/12/23 07:25:26;;;;;;;1.05;0.20;;;10.10;99.90;;;;;;4957132;28;20438;-75
2020/12/23 07:27:55;;;;;;;1.92;0.30;;;10.20;99.90;;;;;;4962495;28;20445;-76
2020/12/23 07:30:22;;;;;;;8.20;0.20;;;10.20;99.90;;;;;;4960975;28;20181;-76
2020/12/23 07:33:08;;;;;;;0.00;0.00;;;10.20;99.90;;;;;;4952414;28;20086;-75
2020/12/23 07:35:37;;;;;;;5.00;0.20;;;10.20;99.90;;;;;;4952798;28;20417;-75
2020/12/23 07:38:04;;;;;;;8.82;0.17;;;10.20;99.90;;;;;;4960557;28;20478;-75
2020/12/23 07:40:32;;;;;;;3.00;0.13;;;10.20;99.90;;;;;;4971161;28;20034;-76
2020/12/23 07:42:58;;;;;;;0.70;0.20;;;10.20;99.90;;;;;;4971425;28;20114;-76
2020/12/23 07:45:29;;;;;;;0.47;0.20;;;10.30;99.90;;;;;;4970041;28;20456;-74
2020/12/23 07:48:00;;;;;;;0.30;0.30;;;10.30;99.90;;;;;;4968688;28;20042;-76
2020/12/23 07:50:27;;;;;;;1.10;0.30;;;10.30;99.90;;;;;;4966251;28;20062;-75
2020/12/23 07:52:53;;;;;;;0.80;0.20;;;10.30;99.90;;;;;;4974149;28;20026;-75
2020/12/23 07:55:23;;;;;;;0.25;0.25;;;10.30;99.90;;;;;;4972757;28;20045;-75
2020/12/23 07:57:51;;;;;;;0.70;0.50;;;10.30;99.90;;;;;;4955498;28;20051;-75
2020/12/23 08:00:18;;;;;;;0.32;0.30;;;10.30;99.90;;;;;;4968032;28;20027;-75
2020/12/23 08:02:44;;;;;;;1.10;0.40;;;10.30;99.90;;;;;;4968343;28;20033;-75
2020/12/23 08:05:12;;;;;;;1.15;0.30;;;10.30;99.90;;;;;;4966203;28;20584;-76
2020/12/23 08:07:42;;;;;;;0.20;0.20;;;10.30;99.90;;;;;;4962004;28;20095;-75
2020/12/23 08:10:19;;;;;;;0.40;0.40;;;10.30;99.90;;;;;;4961381;28;20106;-74
2020/12/23 08:12:59;;;;;;;12.27;0.65;;;10.30;99.90;;;;;;4966071;28;20050;-75
2020/12/23 08:15:25;;;;;;;28.90;0.98;;;10.40;99.90;;;;;;4968120;28;20062;-76
2020/12/23 08:18:04;;;;;;;1.83;0.28;;;10.40;99.90;;;;;;4965078;28;20033;-74
2020/12/23 08:20:34;;;;;;;9.30;0.40;;;10.40;99.90;;;;;;4970636;28;20065;-75
2020/12/23 08:23:01;;;;;;;0.10;0.10;;;10.40;99.90;;;;;;4972151;28;20497;-75
2020/12/23 08:25:28;;;;;;;0.45;0.30;;;10.40;99.90;;;;;;4969760;28;20397;-74
2020/12/23 08:27:57;;;;;;;10.88;0.47;;;10.40;99.90;;;;;;4966687;28;20039;-75
2020/12/23 08:30:28;;;;;;;0.40;0.35;;;10.50;99.90;;;;;;4962107;28;20026;-75
2020/12/23 08:33:05;;;;;;;2.70;0.50;;;10.40;99.90;;;;;;4964726;28;20031;-75
2020/12/23 08:35:39;;;;;;;0.80;0.70;;;10.50;99.90;;;;;;4968001;28;20038;-76
2020/12/23 08:38:14;;;;;;;1.33;0.57;;;10.50;99.90;;;;;;4966777;28;20570;-75
2020/12/23 08:40:48;;;;;;;0.82;0.75;;;10.60;99.90;;;;;;4963824;28;20037;-75
2020/12/23 08:43:28;;;;;;;0.65;0.65;;;10.60;99.90;;;;;;4970885;28;20034;-75
2020/12/23 08:45:58;;;;;;;0.70;0.60;;;10.60;99.90;;;;;;4971810;28;20043;-75
2020/12/23 08:48:26;;;;;;;1.77;0.93;;;10.60;99.90;;;;;;4968814;28;20031;-75
2020/12/23 08:51:00;;;;;;;0.77;0.73;;;10.50;99.90;;;;;;4967652;28;20093;-76
2020/12/23 08:53:34;;;;;;;1.98;1.33;;;10.60;99.90;;;;;;4965702;28;20082;-74
2020/12/23 08:56:21;;;;;;;1.73;1.63;;;10.60;99.90;;;;;;4967601;28;20035;-75
2020/12/23 08:58:58;;;;;;;3.22;1.83;;;10.60;99.90;;;;;;4962065;28;20113;-75
2020/12/23 09:01:25;;;;;;;2.95;1.85;;;10.60;99.90;;;;;;4966041;28;20619;-75
2020/12/23 09:04:07;;;;;;;3.28;1.88;;;10.60;99.90;;;;;;4971798;28;20034;-74
2020/12/23 09:06:34;;;;;;;2.50;1.35;;;10.60;99.90;;;;;;4963807;28;20393;-76
2020/12/23 09:09:08;;;;;;;1.67;1.52;;;10.70;99.90;;;;;;4970387;28;20496;-76
2020/12/23 09:11:46;;;;;;;2.05;1.63;;;10.70;99.90;;;;;;4973432;28;20391;-76
2020/12/23 09:14:20;;;;;;;2.20;1.80;;;10.70;99.90;;;;;;4968207;28;20378;-76
2020/12/23 09:17:22;;;;;;;2.13;1.88;;;10.70;99.90;;;;;;4963585;28;20035;-75
2020/12/23 09:20:03;;;;;;;2.03;1.80;;;10.70;99.90;;;;;;4965303;28;20037;-76
2020/12/23 09:22:36;;;;;;;2.20;2.00;;;10.70;99.90;;;;;;4962496;28;20062;-75
2020/12/23 09:25:12;;;;;;;1.85;1.75;;;10.70;99.90;;;;;;4958078;28;20093;-75
2020/12/23 09:27:38;;;;;;;3.08;1.90;;;10.70;99.90;;;;;;4963203;28;20038;-75
2020/12/23 09:30:05;;;;;;;3.10;1.70;;;10.70;99.90;;;;;;4957421;28;20054;-75
2020/12/23 09:32:31;;;;;;;1.58;1.48;;;10.70;99.90;;;;;;4957093;28;20086;-75
2020/12/23 09:35:24;;;;;;;2.22;1.80;;;10.70;99.90;;;;;;4958862;28;20030;-75
2020/12/23 09:38:27;;;;;;;1.30;1.20;;;10.80;99.90;;;;;;4958066;28;20046;-75
2020/12/23 09:40:58;;;;;;;4.97;1.75;;;10.80;99.90;;;;;;4941305;28;20167;-75
2020/12/23 09:43:29;;;;;;;1.40;1.30;;;10.80;99.90;;;;;;4963537;28;20039;-74
2020/12/23 09:45:57;;;;;;;5.40;1.77;;;10.80;99.90;;;;;;4958622;28;20035;-75
2020/12/23 09:48:24;;;;;;;1.25;1.15;;;10.80;99.90;;;;;;4960763;28;20050;-75
2020/12/23 09:50:53;;;;;;;3.33;1.08;;;10.90;99.90;;;;;;4966732;28;20019;-75
2020/12/23 09:53:20;;;;;;;1.50;0.90;;;10.80;99.90;;;;;;4964494;28;20034;-75
2020/12/23 09:55:48;;;;;;;1.85;1.33;;;11.00;99.90;;;;;;4966737;28;20039;-75
2020/12/23 09:58:15;;;;;;;1.35;1.23;;;11.00;99.90;;;;;;4960753;28;20378;-74
2020/12/23 10:00:42;;;;;;;1.58;1.23;;;11.00;99.90;;;;;;4959713;28;20189;-74
2020/12/23 10:03:08;;;;;;;1.13;0.90;;;11.00;99.90;;;;;;4966482;28;20109;-74
2020/12/23 10:05:35;;;;;;;1.35;1.08;;;11.10;99.90;;;;;;4963604;28;20237;-75
2020/12/23 10:08:01;;;;;;;38.22;1.83;;;11.10;99.90;;;;;;4961074;28;20037;-74
2020/12/23 10:10:28;;;;;;;1.45;1.15;;;11.10;99.90;;;;;;4966728;28;20035;-74
2020/12/23 10:12:53;;;;;;;1.27;1.17;;;11.10;99.90;;;;;;4967378;28;20074;-74
2020/12/23 10:15:19;;;;;;;1.20;1.10;;;11.10;99.90;;;;;;4960702;28;20031;-74
2020/12/23 10:17:45;;;;;;;1.55;1.35;;;11.10;99.90;;;;;;4963310;28;20030;-76
2020/12/23 10:20:11;;;;;;;1.60;1.15;;;11.10;99.90;;;;;;4961298;28;20034;-75
2020/12/23 10:22:37;;;;;;;0.80;0.70;;;11.10;99.90;;;;;;4960986;28;20037;-75
2020/12/23 10:25:04;;;;;;;1.02;0.90;;;11.10;99.90;;;;;;4964607;28;20026;-75
2020/12/23 10:27:30;;;;;;;0.93;0.80;;;11.20;99.90;;;;;;4963721;28;20037;-75
2020/12/23 10:29:55;;;;;;;1.05;0.63;;;11.10;99.90;;;;;;4967434;28;20022;-75
2020/12/23 10:32:21;;;;;;;0.50;0.50;;;11.10;99.90;;;;;;4964583;28;20035;-75
2020/12/23 10:34:47;;;;;;;0.30;0.30;;;11.10;99.90;;;;;;4967819;28;20089;-74
2020/12/23 10:37:19;;;;;;;2.05;0.40;;;11.20;99.90;;;;;;4959086;28;20046;-74
2020/12/23 10:39:45;;;;;;;0.40;0.40;;;11.20;99.90;;;;;;4966291;28;20034;-74
2020/12/23 10:42:11;;;;;;;1.90;0.57;;;11.10;99.90;;;;;;4964883;28;20088;-74
2020/12/23 10:44:37;;;;;;;16.23;0.75;;;11.10;99.90;;;;;;4965087;28;20046;-74
2020/12/23 10:47:03;;;;;;;27.50;0.90;;;11.20;99.90;;;;;;4954673;28;20038;-74
2020/12/23 10:49:29;;;;;;;10.38;0.43;;;11.20;99.90;;;;;;4963190;28;20027;-75
2020/12/23 10:51:57;;;;;;;0.70;0.60;;;11.20;99.90;;;;;;4951019;28;20030;-74
2020/12/23 10:54:24;;;;;;;0.55;0.50;;;11.20;99.90;;;;;;4958877;28;20034;-75
2020/12/23 10:56:50;;;;;;;4.10;0.55;;;11.20;99.90;;;;;;4949613;28;20027;-75
2020/12/23 10:59:16;;;;;;;0.55;0.52;;;11.20;99.90;;;;;;4959839;28;20035;-75
2020/12/23 11:01:41;;;;;;;0.60;0.50;;;11.20;99.90;;;;;;4957597;28;20035;-74
2020/12/23 11:04:07;;;;;;;0.20;0.20;;;11.20;99.90;;;;;;4968424;28;20030;-75
2020/12/23 11:06:33;;;;;;;0.30;0.30;;;11.20;99.90;;;;;;4961044;28;20041;-74
2020/12/23 11:09:00;;;;;;;0.30;0.30;;;11.20;99.90;;;;;;4965387;28;20038;-74
2020/12/23 11:11:26;;;;;;;0.30;0.30;;;11.20;99.90;;;;;;4963313;28;20022;-74
2020/12/23 11:13:52;;;;;;;0.32;0.30;;;11.10;99.90;;;;;;4959507;28;20035;-74
2020/12/23 11:16:19;;;;;;;0.82;0.30;;;11.20;99.90;;;;;;4968649;28;20041;-74
2020/12/23 11:18:46;;;;;;;0.25;0.25;;;11.20;99.90;;;;;;4966593;28;20030;-75
2020/12/23 11:21:13;;;;;;;0.63;0.40;;;11.10;99.90;;;;;;4967312;28;20030;-74
2020/12/23 11:23:39;;;;;;;0.70;0.63;;;11.10;99.90;;;;;;4965237;28;20031;-74
2020/12/23 11:26:05;;;;;;;2.28;0.60;;;11.10;99.90;;;;;;4967578;28;20035;-74
2020/12/23 11:28:32;;;;;;;0.73;0.50;;;11.00;99.90;;;;;;4968832;28;20085;-74
2020/12/23 11:31:00;;;;;;;0.40;0.40;;;11.00;99.90;;;;;;4969172;28;20019;-74
2020/12/23 11:33:27;;;;;;;1.23;0.40;;;11.00;99.90;;;;;;4961265;28;20129;-75
2020/12/23 11:35:53;;;;;;;0.60;0.60;;;10.90;99.90;;;;;;4964076;28;20038;-75
2020/12/23 11:38:19;;;;;;;0.88;0.52;;;10.90;99.90;;;;;;4971051;28;20042;-75
2020/12/23 11:40:45;;;;;;;0.47;0.20;;;10.90;99.90;;;;;;4964873;28;20027;-75
2020/12/23 11:43:10;;;;;;;0.30;0.30;;;10.90;99.90;;;;;;4963009;28;20082;-75
2020/12/23 11:45:36;;;;;;;0.65;0.50;;;10.90;99.90;;;;;;4964191;28;20027;-75
2020/12/23 11:48:02;;;;;;;0.43;0.32;;;10.90;99.90;;;;;;4970797;28;20471;-75
2020/12/23 11:50:28;;;;;;;0.38;0.30;;;10.90;99.90;;;;;;4968968;28;20026;-75
2020/12/23 11:52:53;;;;;;;0.25;0.22;;;10.90;99.90;;;;;;4962133;28;20118;-75
2020/12/23 11:55:19;;;;;;;0.50;0.50;;;10.90;99.90;;;;;;4946755;28;20171;-75
2020/12/23 11:57:46;;;;;;;0.57;0.57;;;10.90;99.90;;;;;;4962265;28;20031;-75
2020/12/23 12:00:12;;;;;;;2.45;0.60;;;11.00;99.90;;;;;;4962895;28;20057;-74
2020/12/23 12:02:41;;;;;;;0.57;0.57;;;11.00;99.90;;;;;;4954023;28;20957;-74
2020/12/23 12:05:10;;;;;;;0.50;0.43;;;10.90;99.90;;;;;;4943012;28;20063;-75
2020/12/23 12:07:37;;;;;;;0.90;0.80;;;10.90;99.90;;;;;;4959709;28;20433;-75
2020/12/23 12:10:05;;;;;;;2.47;1.25;;;10.90;99.90;;;;;;4960846;28;20058;-74
2020/12/23 12:12:31;;;;;;;1.08;0.98;;;11.00;99.90;;;;;;4960683;28;20178;-74
2020/12/23 12:14:57;;;;;;;3.47;1.45;;;11.00;99.90;;;;;;4959277;28;20058;-74
2020/12/23 12:17:22;;;;;;;1.67;1.00;;;10.90;99.90;;;;;;4961469;28;20069;-74
2020/12/23 12:19:50;;;;;;;1.30;1.20;;;10.90;99.90;;;;;;4966104;28;20050;-74
2020/12/23 12:22:16;;;;;;;1.00;0.90;;;10.90;99.90;;;;;;4960408;28;20035;-74
2020/12/23 12:24:42;;;;;;;2.00;1.20;;;11.00;99.90;;;;;;4959596;28;20623;-74
2020/12/23 12:27:08;;;;;;;1.27;1.17;;;11.00;99.90;;;;;;4966684;28;20025;-74
2020/12/23 12:29:34;;;;;;;1.05;0.90;;;11.00;99.90;;;;;;4965859;28;20553;-74
2020/12/23 12:31:59;;;;;;;0.70;0.70;;;10.90;99.90;;;;;;4954979;28;20071;-73
2020/12/23 12:34:27;;;;;;;0.77;0.77;;;10.90;99.90;;;;;;4955084;28;20055;-74
2020/12/23 12:36:54;;;;;;;1.10;0.80;;;10.90;99.90;;;;;;4964489;28;20517;-74
2020/12/23 12:39:20;;;;;;;0.70;0.70;;;10.90;99.90;;;;;;4968346;28;20026;-74
2020/12/23 12:41:45;;;;;;;1.10;0.68;;;10.80;99.90;;;;;;4964452;28;20039;-73
2020/12/23 12:44:11;;;;;;;0.75;0.70;;;10.80;99.90;;;;;;4959220;28;20034;-75
2020/12/23 12:46:37;;;;;;;1.55;0.60;;;10.80;99.90;;;;;;4960002;28;20031;-75
2020/12/23 12:49:03;;;;;;;0.93;0.52;;;10.80;99.90;;;;;;4970130;28;20058;-75
2020/12/23 12:51:29;;;;;;;0.82;0.55;;;10.80;99.90;;;;;;4967858;28;20440;-75